createdAt,value
2022-09-28T00:00:30.673Z,7.4
2022-09-28T00:02:30.260Z,7.3
2022-09-28T00:04:32.952Z,7.4
2022-09-28T00:06:32.913Z,7.2
2022-09-28T00:08:30.567Z,7.2
2022-09-28T00:10:32.847Z,7.4
2022-09-28T00:14:32.796Z,7.2
2022-09-28T00:16:30.173Z,7.3
2022-09-28T00:18:33.096Z,7.2
2022-09-28T00:20:28.811Z,7.4
2022-09-28T00:22:33.512Z,7.3
2022-09-28T00:24:33.330Z,7.4
2022-09-28T00:26:28.845Z,7.4
2022-09-28T00:28:32.838Z,7.4
2022-09-28T00:30:30.600Z,7.5
2022-09-28T00:32:31.459Z,7.4
2022-09-28T00:34:32.060Z,7.5
2022-09-28T00:36:31.504Z,7.4
2022-09-28T00:38:32.014Z,7.5
2022-09-28T00:40:31.960Z,7.4
2022-09-28T00:42:32.839Z,7.5
2022-09-28T00:44:31.967Z,7.5
2022-09-28T00:46:32.959Z,7.5
2022-09-28T00:48:31.105Z,7.7
2022-09-28T00:50:31.865Z,7.6
2022-09-28T00:52:31.981Z,7.6
2022-09-28T00:54:32.502Z,7.6
2022-09-28T00:56:33.858Z,7.7
2022-09-28T00:58:32.014Z,7.6
2022-09-28T01:00:28.870Z,7.7
2022-09-28T01:02:33.911Z,7.8
2022-09-28T01:04:30.228Z,7.7
2022-09-28T01:06:33.654Z,7.6
2022-09-28T01:08:30.560Z,7.8
2022-09-28T01:10:33.554Z,7.7
2022-09-28T01:12:31.036Z,7.8
2022-09-28T01:14:32.805Z,7.9
2022-09-28T01:16:28.465Z,7.9
2022-09-28T01:18:28.858Z,7.9
2022-09-28T01:20:32.915Z,7.9
2022-09-28T01:22:32.354Z,8
2022-09-28T01:24:31.752Z,8
2022-09-28T01:26:31.997Z,8
2022-09-28T01:28:30.320Z,8
2022-09-28T01:30:32.344Z,8
2022-09-28T01:32:30.586Z,8
2022-09-28T01:34:32.778Z,8.1
2022-09-28T01:36:30.218Z,8.1
2022-09-28T01:38:30.154Z,8.1
2022-09-28T01:40:30.587Z,8.1
2022-09-28T01:42:30.660Z,8.1
2022-09-28T01:44:32.570Z,8.1
2022-09-28T01:46:30.041Z,8.1
2022-09-28T01:48:31.966Z,8.1
2022-09-28T01:50:30.531Z,8.1
2022-09-28T01:52:31.024Z,8.1
2022-09-28T01:54:31.956Z,8.2
2022-09-28T01:56:28.873Z,8.2
2022-09-28T01:58:31.757Z,8.2
2022-09-28T02:00:32.415Z,8.2
2022-09-28T02:02:32.993Z,8.2
2022-09-28T02:04:32.139Z,8.2
2022-09-28T02:06:31.645Z,8.2
2022-09-28T02:08:32.081Z,8.2
2022-09-28T02:10:31.878Z,8.2
2022-09-28T02:12:29.155Z,8.2
2022-09-28T02:14:30.383Z,8.2
2022-09-28T02:16:33.113Z,8.1
2022-09-28T02:18:28.834Z,8.1
2022-09-28T02:20:28.855Z,8.1
2022-09-28T02:22:31.571Z,8.1
2022-09-28T02:24:30.448Z,8.1
2022-09-28T02:26:33.406Z,8.1
2022-09-28T02:28:31.881Z,8
2022-09-28T02:30:30.205Z,8
2022-09-28T02:32:31.178Z,8
2022-09-28T02:34:31.913Z,7.9
2022-09-28T02:36:33.662Z,7.9
2022-09-28T02:38:30.930Z,7.8
2022-09-28T02:40:32.995Z,7.9
2022-09-28T02:42:30.750Z,7.9
2022-09-28T02:44:31.552Z,8
2022-09-28T02:46:32.864Z,8
2022-09-28T02:48:42.990Z,8
2022-09-28T02:50:33.222Z,8.1
2022-09-28T02:52:30.332Z,8.1
2022-09-28T02:54:33.066Z,8.1
2022-09-28T02:56:31.660Z,8
2022-09-28T02:58:33.565Z,7.9
2022-09-28T03:00:32.084Z,7.9
2022-09-28T03:02:30.795Z,7.9
2022-09-28T03:04:32.345Z,7.9
2022-09-28T03:06:30.815Z,7.9
2022-09-28T03:08:31.402Z,7.9
2022-09-28T03:10:32.924Z,7.9
2022-09-28T03:12:33.159Z,8
2022-09-28T03:14:29.607Z,7.9
2022-09-28T03:16:30.623Z,8
2022-09-28T03:18:30.228Z,8
2022-09-28T03:20:32.868Z,8
2022-09-28T03:22:33.178Z,7.9
2022-09-28T03:24:33.299Z,7.9
2022-09-28T03:26:33.087Z,7.9
2022-09-28T03:30:33.188Z,7.9
2022-09-28T03:32:33.566Z,7.9
2022-09-28T03:34:32.775Z,7.9
2022-09-28T03:36:31.887Z,8
2022-09-28T03:38:30.247Z,8
2022-09-28T03:40:32.639Z,8.1
2022-09-28T03:42:28.877Z,8.1
2022-09-28T03:44:30.268Z,8.1
2022-09-28T03:46:32.999Z,8.1
2022-09-28T03:48:32.515Z,8.1
2022-09-28T03:50:32.245Z,8.1
2022-09-28T03:52:32.896Z,8.1
2022-09-28T03:54:33.145Z,8.2
2022-09-28T03:56:32.508Z,8.2
2022-09-28T03:58:33.731Z,8.3
2022-09-28T04:00:37.023Z,8.3
2022-09-28T04:02:32.578Z,8.3
2022-09-28T04:04:32.834Z,8.3
2022-09-28T04:06:30.348Z,8.3
2022-09-28T04:08:30.706Z,8.2
2022-09-28T04:10:32.768Z,8.3
2022-09-28T04:12:30.220Z,8.2
2022-09-28T04:14:28.944Z,8.2
2022-09-28T04:16:31.680Z,8.2
2022-09-28T04:18:32.340Z,8.2
2022-09-28T04:20:33.400Z,8.3
2022-09-28T04:22:32.960Z,8.3
2022-09-28T04:24:31.954Z,8.3
2022-09-28T04:26:34.102Z,8.3
2022-09-28T04:28:31.181Z,8.2
2022-09-28T04:30:28.881Z,8.1
2022-09-28T04:32:30.297Z,8.1
2022-09-28T04:34:35.866Z,8.1
2022-09-28T04:36:30.786Z,8.1
2022-09-28T04:38:51.591Z,8.2
2022-09-28T04:40:30.952Z,8.3
2022-09-28T04:42:32.957Z,8.4
2022-09-28T04:44:30.249Z,8.4
2022-09-28T04:46:31.606Z,8.4
2022-09-28T04:48:32.910Z,8.4
2022-09-28T04:50:33.911Z,8.4
2022-09-28T04:54:28.467Z,8.4
2022-09-28T04:56:32.143Z,8.4
2022-09-28T04:58:28.859Z,8.4
2022-09-28T05:00:30.422Z,8.4
2022-09-28T05:02:31.290Z,8.4
2022-09-28T05:04:33.190Z,8.4
2022-09-28T05:06:31.567Z,8.5
2022-09-28T05:08:32.444Z,8.5
2022-09-28T05:10:28.865Z,8.5
2022-09-28T05:12:32.950Z,8.6
2022-09-28T05:14:30.372Z,8.5
2022-09-28T05:16:30.312Z,8.5
2022-09-28T05:18:32.176Z,8.5
2022-09-28T05:20:31.104Z,8.5
2022-09-28T05:22:31.292Z,8.5
2022-09-28T05:24:30.893Z,8.6
2022-09-28T05:26:32.108Z,8.6
2022-09-28T05:28:32.505Z,8.5
2022-09-28T05:30:33.401Z,8.5
2022-09-28T05:32:31.251Z,8.6
2022-09-28T05:34:28.933Z,8.6
2022-09-28T05:36:33.368Z,8.6
2022-09-28T05:38:30.344Z,8.6
2022-09-28T05:40:29.273Z,8.6
2022-09-28T05:42:33.017Z,8.6
2022-09-28T05:44:33.484Z,8.6
2022-09-28T05:46:31.957Z,8.6
2022-09-28T05:48:32.201Z,8.6
2022-09-28T05:50:32.521Z,8.6
2022-09-28T05:52:32.430Z,8.6
2022-09-28T05:54:33.696Z,8.6
2022-09-28T05:56:33.040Z,8.6
2022-09-28T05:58:30.770Z,8.6
2022-09-28T06:02:30.351Z,8.6
2022-09-28T06:04:32.303Z,8.6
2022-09-28T06:06:31.967Z,8.6
2022-09-28T06:08:30.641Z,8.6
2022-09-28T06:10:31.042Z,8.6
2022-09-28T06:12:30.655Z,8.6
2022-09-28T06:14:30.805Z,8.6
2022-09-28T06:16:33.077Z,8.6
2022-09-28T06:18:29.301Z,8.6
2022-09-28T06:20:33.659Z,8.5
2022-09-28T06:22:30.649Z,8.6
2022-09-28T06:24:32.539Z,8.6
2022-09-28T06:26:29.215Z,8.5
2022-09-28T06:28:28.893Z,8.5
2022-09-28T06:30:32.961Z,8.5
2022-09-28T06:32:28.862Z,8.5
2022-09-28T06:34:32.669Z,8.5
2022-09-28T06:36:33.021Z,8.5
2022-09-28T06:38:32.839Z,8.5
2022-09-28T06:40:31.858Z,8.5
2022-09-28T06:42:32.388Z,8.4
2022-09-28T06:44:32.575Z,8.5
2022-09-28T06:46:28.575Z,8.5
2022-09-28T06:48:32.977Z,8.5
2022-09-28T06:50:32.972Z,8.5
2022-09-28T06:52:33.440Z,8.6
2022-09-28T06:54:32.043Z,8.5
2022-09-28T06:56:34.256Z,8.5
2022-09-28T06:58:30.812Z,8.5
2022-09-28T07:00:32.450Z,8.5
2022-09-28T07:02:30.747Z,8.5
2022-09-28T07:04:32.514Z,8.5
2022-09-28T07:06:33.208Z,8.5
2022-09-28T07:08:30.668Z,8.5
2022-09-28T07:10:32.419Z,8.6
2022-09-28T07:12:33.063Z,8.5
2022-09-28T07:14:43.828Z,8.5
2022-09-28T07:16:48.374Z,8.5
2022-09-28T07:20:31.639Z,8.5
2022-09-28T07:22:40.032Z,8.4
2022-09-28T07:24:32.764Z,8.4
2022-09-28T07:26:33.013Z,8.4
2022-09-28T07:28:30.273Z,8.5
2022-09-28T07:30:30.714Z,8.5
2022-09-28T07:32:32.451Z,8.4
2022-09-28T07:34:30.148Z,8.4
2022-09-28T07:36:30.371Z,8.4
2022-09-28T07:38:32.054Z,8.4
2022-09-28T07:40:32.169Z,8.4
2022-09-28T07:42:30.258Z,8.5
2022-09-28T07:44:30.852Z,8.5
2022-09-28T07:46:30.848Z,8.5
2022-09-28T07:48:32.822Z,8.5
2022-09-28T07:50:32.533Z,8.5
2022-09-28T07:52:32.480Z,8.6
2022-09-28T07:54:31.624Z,8.5
2022-09-28T07:56:32.138Z,8.6
2022-09-28T07:58:31.730Z,8.6
2022-09-28T08:00:33.874Z,8.6
2022-09-28T08:04:30.886Z,8.6
2022-09-28T08:06:28.954Z,8.6
2022-09-28T08:08:33.361Z,8.7
2022-09-28T08:10:32.962Z,8.6
2022-09-28T08:12:30.266Z,8.6
2022-09-28T08:14:33.361Z,8.6
2022-09-28T08:16:32.783Z,8.6
2022-09-28T08:18:32.423Z,8.5
2022-09-28T08:20:32.557Z,8.6
2022-09-28T08:22:32.955Z,8.7
2022-09-28T08:24:32.370Z,8.5
2022-09-28T08:26:31.201Z,8.5
2022-09-28T08:28:32.213Z,8.7
2022-09-28T08:30:31.286Z,8.7
2022-09-28T08:34:19.937Z,8.6
2022-09-28T08:36:20.598Z,8.8
2022-09-28T08:38:21.901Z,9
2022-09-28T08:40:25.904Z,8.9
2022-09-28T08:42:19.172Z,9
2022-09-28T08:44:19.261Z,9.2
2022-09-28T08:46:23.777Z,9.1
2022-09-28T08:48:24.129Z,9.3
2022-09-28T08:52:20.557Z,9.3
2022-09-28T08:54:22.227Z,9.3
2022-09-28T08:56:20.645Z,9.3
2022-09-28T08:58:21.936Z,9.3
2022-09-28T09:00:21.239Z,9.4
2022-09-28T09:02:24.778Z,9.4
2022-09-28T09:04:22.062Z,9.4
2022-09-28T09:06:20.852Z,9.8
2022-09-28T09:08:19.609Z,9.7
2022-09-28T09:12:26.065Z,10.1
2022-09-28T09:14:18.625Z,10
2022-09-28T09:16:24.913Z,10.1
2022-09-28T09:18:23.680Z,10.2
2022-09-28T09:20:19.165Z,10.1
2022-09-28T09:22:22.197Z,10.2
2022-09-28T09:24:23.955Z,10.4
2022-09-28T09:26:24.342Z,10.4
2022-09-28T09:28:25.788Z,9.9
2022-09-28T09:30:26.697Z,9.9
2022-09-28T09:32:26.054Z,9.9
2022-09-28T09:34:25.111Z,9.7
2022-09-28T09:36:22.879Z,9.9
2022-09-28T09:38:21.181Z,10
2022-09-28T09:40:20.873Z,10.1
2022-09-28T09:42:19.288Z,10.2
2022-09-28T09:44:24.225Z,10.3
2022-09-28T09:46:20.866Z,10
2022-09-28T09:48:22.569Z,10
2022-09-28T09:50:23.927Z,9.9
2022-09-28T09:52:24.653Z,9.7
2022-09-28T09:54:23.414Z,9.6
2022-09-28T09:56:22.621Z,9.5
2022-09-28T09:58:24.743Z,9.5
2022-09-28T10:00:21.058Z,9.5
2022-09-28T10:02:19.748Z,9.5
2022-09-28T10:04:19.212Z,9.6
2022-09-28T10:06:22.931Z,9.6
2022-09-28T10:08:22.557Z,9.7
2022-09-28T10:10:22.531Z,9.5
2022-09-28T10:12:19.138Z,9.6
2022-09-28T10:14:23.554Z,9.6
2022-09-28T10:16:26.556Z,9.8
2022-09-28T10:18:19.007Z,9.7
2022-09-28T10:20:18.173Z,9.6
2022-09-28T10:22:22.145Z,9.9
2022-09-28T10:24:19.372Z,10
2022-09-28T10:26:25.008Z,9.7
2022-09-28T10:28:20.806Z,9.7
2022-09-28T10:30:24.654Z,9.5
2022-09-28T10:32:20.725Z,9.6
2022-09-28T10:34:21.244Z,9.7
2022-09-28T10:36:18.847Z,9.6
2022-09-28T10:38:25.178Z,9.6
2022-09-28T10:40:23.871Z,9.6
2022-09-28T10:42:19.710Z,9.7
2022-09-28T10:44:20.831Z,9.6
2022-09-28T10:46:22.604Z,9.7
2022-09-28T10:48:21.439Z,9.9
2022-09-28T10:50:23.806Z,9.9
2022-09-28T10:52:24.049Z,9.9
2022-09-28T10:54:21.554Z,9.9
2022-09-28T10:56:22.351Z,10.1
2022-09-28T10:58:25.007Z,10.1
2022-09-28T11:00:23.455Z,10.3
2022-09-28T11:02:21.003Z,10.5
2022-09-28T11:04:22.780Z,10.5
2022-09-28T11:06:19.163Z,10.4
2022-09-28T11:08:25.194Z,10.4
2022-09-28T11:10:25.757Z,10.4
2022-09-28T11:12:21.802Z,10.2
2022-09-28T11:14:21.843Z,10.2
2022-09-28T11:16:25.616Z,10.4
2022-09-28T11:18:23.799Z,10.3
2022-09-28T11:20:27.295Z,10.3
2022-09-28T11:22:24.083Z,10.2
2022-09-28T11:24:23.612Z,10.1
2022-09-28T11:26:21.049Z,10.3
2022-09-28T11:28:24.801Z,10.5
2022-09-28T11:30:18.963Z,10.4
2022-09-28T11:32:20.662Z,10.8
2022-09-28T11:34:22.795Z,10.8
2022-09-28T11:36:25.711Z,10.6
2022-09-28T11:38:19.364Z,10.7
2022-09-28T11:40:25.928Z,10.7
2022-09-28T11:42:20.669Z,10.4
2022-09-28T11:44:27.075Z,10.3
2022-09-28T11:46:21.349Z,10.6
2022-09-28T11:48:22.347Z,10.6
2022-09-28T11:50:24.511Z,10.5
2022-09-28T11:52:24.977Z,10.6
2022-09-28T11:54:20.411Z,10.4
2022-09-28T11:56:20.749Z,10.3
2022-09-28T11:58:21.867Z,10.4
2022-09-28T12:00:23.968Z,10.4
2022-09-28T12:02:25.738Z,10.4
2022-09-28T12:04:25.932Z,10.4
2022-09-28T12:06:21.162Z,10.6
2022-09-28T12:08:19.813Z,10.7
2022-09-28T12:10:20.980Z,10.7
2022-09-28T12:12:21.247Z,10.7
2022-09-28T12:14:22.591Z,10.7
2022-09-28T12:16:53.388Z,10.6
2022-09-28T12:18:24.546Z,11.1
2022-09-28T12:20:26.861Z,11.1
2022-09-28T12:22:22.554Z,11
2022-09-28T12:24:24.073Z,11
2022-09-28T12:26:19.011Z,11.1
2022-09-28T12:28:18.734Z,11.2
2022-09-28T12:30:23.601Z,11.4
2022-09-28T12:32:23.875Z,11.3
2022-09-28T12:34:23.381Z,11.4
2022-09-28T12:36:18.897Z,10.9
2022-09-28T12:38:24.597Z,10.8
2022-09-28T12:42:22.089Z,11.3
2022-09-28T12:44:19.363Z,11
2022-09-28T12:46:21.244Z,10.8
2022-09-28T12:48:23.680Z,10.8
2022-09-28T12:50:39.481Z,11.2
2022-09-28T12:52:25.383Z,11.1
2022-09-28T12:54:22.160Z,11.2
2022-09-28T12:56:20.833Z,11.2
2022-09-28T12:58:25.784Z,11.4
2022-09-28T13:00:26.221Z,11.1
2022-09-28T13:02:19.309Z,11.5
2022-09-28T13:04:21.315Z,11.6
2022-09-28T13:06:21.868Z,11.3
2022-09-28T13:08:19.056Z,11.6
2022-09-28T13:10:22.304Z,11.5
2022-09-28T13:12:22.654Z,11.3
2022-09-28T13:14:20.802Z,11.1
2022-09-28T13:16:26.689Z,11.3
2022-09-28T13:18:23.935Z,11.3
2022-09-28T13:20:25.459Z,11.2
2022-09-28T13:22:24.165Z,11.4
2022-09-28T13:24:31.976Z,11.3
2022-09-28T13:26:21.315Z,11.4
2022-09-28T13:28:20.094Z,11.4
2022-09-28T13:30:24.574Z,11.5
2022-09-28T13:32:26.268Z,11.4
2022-09-28T13:38:25.557Z,11.5
2022-09-28T13:40:21.966Z,11.3
2022-09-28T13:42:26.968Z,11.2
2022-09-28T13:44:22.833Z,11.5
2022-09-28T13:46:24.644Z,11.1
2022-09-28T13:48:22.653Z,11.2
2022-09-28T13:50:24.038Z,11.3
2022-09-28T13:52:23.293Z,11.3
2022-09-28T13:54:23.202Z,11.2
2022-09-28T13:56:23.509Z,11.2
2022-09-28T13:58:22.185Z,11.2
2022-09-28T14:00:22.579Z,11.2
2022-09-28T14:02:23.125Z,11.2
2022-09-28T14:04:22.601Z,11.2
2022-09-28T14:06:23.539Z,11.1
2022-09-28T14:08:25.508Z,11.2
2022-09-28T14:10:24.578Z,10.8
2022-09-28T14:12:23.479Z,11
2022-09-28T14:14:24.993Z,10.5
2022-09-28T14:16:22.379Z,10.6
2022-09-28T14:18:21.495Z,10.8
2022-09-28T14:20:23.946Z,10.2
2022-09-28T14:22:22.027Z,10.2
2022-09-28T14:24:19.032Z,10.3
2022-09-28T14:26:21.408Z,10.2
2022-09-28T14:28:21.167Z,10.1
2022-09-28T14:30:22.554Z,10.1
2022-09-28T14:32:22.576Z,10.2
2022-09-28T14:34:23.878Z,10
2022-09-28T14:36:21.373Z,10.1
2022-09-28T14:38:19.488Z,10.1
2022-09-28T14:40:25.819Z,10.1
2022-09-28T14:42:20.915Z,10
2022-09-28T14:44:20.544Z,9.9
2022-09-28T14:46:19.443Z,10
2022-09-28T14:48:24.569Z,9.8
2022-09-28T14:50:25.122Z,10
2022-09-28T14:52:26.488Z,10
2022-09-28T14:54:26.109Z,10
2022-09-28T14:56:21.106Z,10.1
2022-09-28T14:58:24.743Z,10.1
2022-09-28T15:03:12.113Z,10
2022-09-28T15:05:11.457Z,10
2022-09-28T15:07:10.838Z,9.7
2022-09-28T15:09:10.378Z,9.8
2022-09-28T15:11:10.781Z,9.7
2022-09-28T15:15:09.393Z,9.7
2022-09-28T15:21:09.945Z,9.7
2022-09-28T15:23:11.052Z,9.6
2022-09-28T15:27:11.442Z,9.5
2022-09-28T15:29:11.036Z,9.4
2022-09-28T15:31:10.944Z,9.4
2022-09-28T15:33:10.405Z,9.3
2022-09-28T15:35:10.916Z,9.4
2022-09-28T15:37:10.747Z,9.3
2022-09-28T15:39:07.994Z,9.4
2022-09-28T15:45:08.258Z,9.3
2022-09-28T15:47:10.922Z,9.3
2022-09-28T15:49:11.237Z,9.3
2022-09-28T15:51:07.005Z,9.1
2022-09-28T15:53:05.576Z,9.1
2022-09-28T15:55:10.934Z,9.1
2022-09-28T15:57:07.417Z,9.1
2022-09-28T15:59:10.577Z,9
2022-09-28T16:01:09.029Z,9
2022-09-28T16:03:07.667Z,9
2022-09-28T16:05:10.961Z,8.9
2022-09-28T16:07:11.000Z,8.9
2022-09-28T16:09:10.405Z,8.8
2022-09-28T16:11:10.958Z,8.8
2022-09-28T16:13:10.796Z,8.9
2022-09-28T16:15:07.165Z,8.8
2022-09-28T16:17:11.210Z,8.9
2022-09-28T16:19:11.889Z,8.8
2022-09-28T16:21:09.988Z,8.8
2022-09-28T16:23:09.731Z,8.7
2022-09-28T16:25:10.994Z,8.7
2022-09-28T16:27:10.306Z,8.7
2022-09-28T16:29:09.712Z,8.7
2022-09-28T16:33:07.117Z,8.7
2022-09-28T16:35:11.233Z,8.6
2022-09-28T16:37:10.781Z,8.5
2022-09-28T16:39:07.224Z,8.5
2022-09-28T16:41:14.463Z,8.5
2022-09-28T16:43:11.335Z,8.5
2022-09-28T16:45:05.882Z,8.4
2022-09-28T16:47:09.659Z,8.4
2022-09-28T16:51:10.466Z,8.3
2022-09-28T16:57:07.481Z,8.2
2022-09-28T16:59:13.571Z,8.2
2022-09-28T17:01:10.870Z,8.2
2022-09-28T17:03:08.639Z,8.2
2022-09-28T17:07:10.504Z,8.1
2022-09-28T17:09:04.977Z,8
2022-09-28T17:11:19.107Z,8.1
2022-09-28T17:13:11.277Z,8
2022-09-28T17:15:10.397Z,8
2022-09-28T17:17:16.365Z,8.1
2022-09-28T17:19:11.142Z,8
2022-09-28T17:21:09.563Z,7.9
2022-09-28T17:23:10.963Z,7.8
2022-09-28T17:25:12.661Z,7.8
2022-09-28T17:27:07.249Z,7.9
2022-09-28T17:31:09.111Z,7.8
2022-09-28T17:33:07.540Z,7.9
2022-09-28T17:35:23.962Z,7.8
2022-09-28T17:37:11.427Z,7.8
2022-09-28T17:39:10.439Z,7.8
2022-09-28T17:41:11.100Z,7.8
2022-09-28T17:45:10.487Z,7.7
2022-09-28T17:49:10.062Z,7.7
2022-09-28T17:51:09.878Z,7.7
2022-09-28T17:53:10.960Z,7.6
2022-09-28T17:57:09.109Z,7.7
2022-09-28T18:01:11.545Z,7.6
2022-09-28T18:03:10.445Z,7.6
2022-09-28T18:05:10.413Z,7.6
2022-09-28T18:09:08.228Z,7.6
2022-09-28T18:11:11.031Z,7.5
2022-09-28T18:13:10.882Z,7.6
2022-09-28T18:15:08.467Z,7.6
2022-09-28T18:17:08.058Z,7.6
2022-09-28T18:19:11.295Z,7.6
2022-09-28T18:21:09.482Z,7.6
2022-09-28T18:23:11.025Z,7.5
2022-09-28T18:25:10.915Z,7.6
2022-09-28T18:27:07.816Z,7.5
2022-09-28T18:29:10.855Z,7.5
2022-09-28T18:33:09.445Z,7.5
2022-09-28T18:35:10.160Z,7.5
2022-09-28T18:37:08.739Z,7.5
2022-09-28T18:39:10.454Z,7.5
2022-09-28T18:41:10.974Z,7.4
2022-09-28T18:43:09.743Z,7.4
2022-09-28T18:45:08.440Z,7.4
2022-09-28T18:51:07.787Z,7.6
2022-09-28T18:53:10.345Z,7.5
2022-09-28T18:55:11.137Z,7.5
2022-09-28T18:57:09.928Z,7.4
2022-09-28T19:01:28.784Z,7.4
2022-09-28T19:03:06.592Z,7.4
2022-09-28T19:07:11.005Z,7.3
2022-09-28T19:09:05.375Z,7.3
2022-09-28T19:11:11.153Z,7.2
2022-09-28T19:13:11.199Z,7.2
2022-09-28T19:15:08.523Z,7.2
2022-09-28T19:21:08.315Z,7.2
2022-09-28T19:23:10.728Z,7.2
2022-09-28T19:27:09.032Z,7.2
2022-09-28T19:29:10.921Z,7.2
2022-09-28T19:31:09.982Z,7.2
2022-09-28T19:33:10.795Z,7.2
2022-09-28T19:39:08.159Z,7.2
2022-09-28T19:41:10.364Z,7.2
2022-09-28T19:43:09.875Z,7.2
2022-09-28T19:45:06.902Z,7.2
2022-09-28T19:47:11.000Z,7.2
2022-09-28T19:51:06.818Z,7.2
2022-09-28T19:57:08.221Z,7.2
2022-09-28T20:03:09.759Z,7.2
2022-09-28T20:05:11.106Z,7.2
2022-09-28T20:09:09.181Z,7.2
2022-09-28T20:11:10.924Z,7.2
2022-09-28T20:13:11.000Z,7.2
2022-09-28T20:15:09.562Z,7.2
2022-09-28T20:17:10.511Z,7.1
2022-09-28T20:19:11.124Z,7.2
2022-09-28T20:21:08.111Z,7.2
2022-09-28T20:23:10.839Z,7.2
2022-09-28T20:27:08.168Z,7.1
2022-09-28T20:33:08.210Z,7.1
2022-09-28T20:35:11.020Z,7.1
2022-09-28T20:37:07.993Z,7.1
2022-09-28T20:39:09.169Z,7.1
2022-09-28T20:41:10.953Z,7.1
2022-09-28T20:45:06.806Z,7
2022-09-28T20:49:11.399Z,7
2022-09-28T20:51:07.215Z,7
2022-09-28T20:53:09.325Z,7
2022-09-28T20:55:10.943Z,7
2022-09-28T20:57:09.098Z,6.9
2022-09-28T20:59:11.366Z,7
2022-09-28T21:03:10.482Z,6.9
2022-09-28T21:05:10.871Z,6.9
2022-09-28T21:07:11.259Z,6.9
2022-09-28T21:09:10.474Z,7
2022-09-28T21:13:11.130Z,6.9
2022-09-28T21:15:09.724Z,7
2022-09-28T21:17:10.804Z,7
2022-09-28T21:21:10.598Z,7
2022-09-28T21:23:10.871Z,7
2022-09-28T21:25:11.015Z,7
2022-09-28T21:27:07.577Z,7
2022-09-28T21:29:10.891Z,6.9
2022-09-28T21:31:10.555Z,7
2022-09-28T21:33:10.679Z,6.9
2022-09-28T21:37:10.939Z,6.8
2022-09-28T21:39:10.716Z,6.7
2022-09-28T21:45:07.617Z,6.7
2022-09-28T21:47:11.296Z,6.8
2022-09-28T21:49:10.200Z,6.8
2022-09-28T21:51:14.582Z,6.8
2022-09-28T21:53:11.641Z,6.7
2022-09-28T21:55:10.864Z,6.7
2022-09-28T21:57:07.964Z,6.8
2022-09-28T21:59:11.042Z,6.7
2022-09-28T22:01:10.511Z,6.6
2022-09-28T22:03:09.240Z,6.6
2022-09-28T22:05:10.867Z,6.6
2022-09-28T22:07:10.649Z,6.5
2022-09-28T22:09:07.445Z,6.4
2022-09-28T22:13:09.706Z,6.6
2022-09-28T22:15:09.446Z,6.6
2022-09-28T22:17:09.511Z,6.5
2022-09-28T22:21:08.829Z,6.7
2022-09-28T22:23:10.817Z,6.7
2022-09-28T22:25:10.863Z,6.7
2022-09-28T22:27:06.907Z,6.6
2022-09-28T22:33:07.904Z,6.7
2022-09-28T22:39:10.443Z,6.6
2022-09-28T22:41:10.920Z,6.6
2022-09-28T22:43:10.772Z,6.5
2022-09-28T22:45:09.147Z,6.5
2022-09-28T22:47:10.581Z,6.4
2022-09-28T22:49:11.201Z,6.4
2022-09-28T22:51:09.079Z,6.5
2022-09-28T22:53:10.721Z,6.3
2022-09-28T22:57:11.538Z,6.3
2022-09-28T22:59:09.395Z,6.2
2022-09-28T23:01:10.950Z,6.2
2022-09-28T23:03:08.740Z,6.1
2022-09-28T23:05:10.835Z,6.2
2022-09-28T23:09:08.173Z,6.1
2022-09-28T23:11:10.981Z,6.1
2022-09-28T23:15:09.426Z,6.1
2022-09-28T23:17:10.998Z,6.1
2022-09-28T23:19:11.429Z,6
2022-09-28T23:21:08.260Z,6
2022-09-28T23:27:07.807Z,6
2022-09-28T23:29:11.103Z,6.1
2022-09-28T23:31:10.976Z,6.1
2022-09-28T23:33:08.079Z,6
2022-09-28T23:35:10.407Z,6.1
2022-09-28T23:37:10.950Z,6
2022-09-28T23:39:11.444Z,6
2022-09-28T23:41:12.917Z,6
2022-09-28T23:43:11.115Z,6
2022-09-28T23:45:11.399Z,6
2022-09-28T23:49:11.079Z,6
2022-09-28T23:51:11.074Z,5.9
2022-09-28T23:53:11.196Z,6
2022-09-28T23:55:11.142Z,6
2022-09-28T23:57:08.236Z,6
2022-09-28T23:59:11.210Z,5.9
